sensor_id;sensor_type;location;lat;lon;timestamp;temperature;humidity
5041;DHT22;2539;52.568;13.364;2022-12-10T00:05:03;-1.40;99.90
5041;DHT22;2539;52.568;13.364;2022-12-10T00:07:30;-1.50;99.90
5041;DHT22;2539;52.568;13.364;2022-12-10T00:09:55;-1.50;99.90
5041;DHT22;2539;52.568;13.364;2022-12-10T00:12:21;-1.60;99.90
5041;DHT22;2539;52.568;13.364;2022-12-10T00:14:47;-2.70;99.90
5041;DHT22;2539;52.568;13.364;2022-12-10T00:17:12;-1.50;99.90
5041;DHT22;2539;52.568;13.364;2022-12-10T00:19:38;-1.50;99.90
5041;DHT22;2539;52.568;13.364;2022-12-10T00:22:05;-1.40;99.90
5041;DHT22;2539;52.568;13.364;2022-12-10T00:24:31;-1.30;99.90
5041;DHT22;2539;52.568;13.364;2022-12-10T00:26:57;-1.30;99.90
5041;DHT22;2539;52.568;13.364;2022-12-10T00:29:24;1.00;99.90
5041;DHT22;2539;52.568;13.364;2022-12-10T00:31:51;-1.30;99.90
5041;DHT22;2539;52.568;13.364;2022-12-10T00:34:17;-1.30;99.90
5041;DHT22;2539;52.568;13.364;2022-12-10T00:36:45;-1.40;99.90
5041;DHT22;2539;52.568;13.364;2022-12-10T00:39:14;-1.40;99.90
5041;DHT22;2539;52.568;13.364;2022-12-10T00:41:41;-1.50;99.90
5041;DHT22;2539;52.568;13.364;2022-12-10T00:44:08;-1.40;99.90
5041;DHT22;2539;52.568;13.364;2022-12-10T00:46:33;-1.40;99.90
5041;DHT22;2539;52.568;13.364;2022-12-10T00:48:59;-1.40;99.90
5041;DHT22;2539;52.568;13.364;2022-12-10T00:51:26;-1.50;99.90
5041;DHT22;2539;52.568;13.364;2022-12-10T00:53:54;-1.50;99.90
5041;DHT22;2539;52.568;13.364;2022-12-10T00:56:26;-1.50;99.90
5041;DHT22;2539;52.568;13.364;2022-12-10T00:58:53;-1.50;99.90
5041;DHT22;2539;52.568;13.364;2022-12-10T01:01:26;-1.50;99.90
5041;DHT22;2539;52.568;13.364;2022-12-10T01:03:55;-1.50;99.90
5041;DHT22;2539;52.568;13.364;2022-12-10T01:06:27;-1.50;99.90
5041;DHT22;2539;52.568;13.364;2022-12-10T01:08:57;-1.50;99.90
5041;DHT22;2539;52.568;13.364;2022-12-10T01:11:28;-1.50;99.90
5041;DHT22;2539;52.568;13.364;2022-12-10T01:13:55;-1.50;99.90
5041;DHT22;2539;52.568;13.364;2022-12-10T01:16:22;-1.60;99.90
5041;DHT22;2539;52.568;13.364;2022-12-10T01:18:49;-1.50;99.90
5041;DHT22;2539;52.568;13.364;2022-12-10T01:21:18;-1.60;99.90
5041;DHT22;2539;52.568;13.364;2022-12-10T01:23:46;-1.50;99.90
5041;DHT22;2539;52.568;13.364;2022-12-10T01:26:14;-1.60;99.90
5041;DHT22;2539;52.568;13.364;2022-12-10T01:28:42;-1.60;99.90
5041;DHT22;2539;52.568;13.364;2022-12-10T01:31:14;-1.70;99.90
5041;DHT22;2539;52.568;13.364;2022-12-10T01:33:42;-1.80;99.90
5041;DHT22;2539;52.568;13.364;2022-12-10T01:36:11;-1.80;99.90
5041;DHT22;2539;52.568;13.364;2022-12-10T01:38:39;-1.80;99.90
5041;DHT22;2539;52.568;13.364;2022-12-10T01:41:07;-1.80;99.90
5041;DHT22;2539;52.568;13.364;2022-12-10T01:43:51;-1.90;99.90
5041;DHT22;2539;52.568;13.364;2022-12-10T01:46:18;-1.90;99.90
5041;DHT22;2539;52.568;13.364;2022-12-10T01:48:44;-2.00;99.90
5041;DHT22;2539;52.568;13.364;2022-12-10T01:51:12;-2.00;99.90
5041;DHT22;2539;52.568;13.364;2022-12-10T01:53:41;-2.20;99.90
5041;DHT22;2539;52.568;13.364;2022-12-10T01:56:10;-2.10;99.90
5041;DHT22;2539;52.568;13.364;2022-12-10T01:58:36;-2.10;99.90
5041;DHT22;2539;52.568;13.364;2022-12-10T02:07:11;-2.10;99.90
5041;DHT22;2539;52.568;13.364;2022-12-10T02:09:50;-2.20;99.90
5041;DHT22;2539;52.568;13.364;2022-12-10T02:12:23;-2.20;99.90
5041;DHT22;2539;52.568;13.364;2022-12-10T02:15:12;-2.20;99.90
5041;DHT22;2539;52.568;13.364;2022-12-10T02:17:45;-2.20;99.90
5041;DHT22;2539;52.568;13.364;2022-12-10T02:21:05;-2.20;99.90
5041;DHT22;2539;52.568;13.364;2022-12-10T02:23:22;-2.30;99.90
5041;DHT22;2539;52.568;13.364;2022-12-10T02:25:56;-2.30;99.90
5041;DHT22;2539;52.568;13.364;2022-12-10T02:28:45;-2.50;99.90
5041;DHT22;2539;52.568;13.364;2022-12-10T02:31:15;-2.20;99.90
5041;DHT22;2539;52.568;13.364;2022-12-10T02:33:47;-2.30;99.90
5041;DHT22;2539;52.568;13.364;2022-12-10T02:36:15;-2.30;99.90
5041;DHT22;2539;52.568;13.364;2022-12-10T02:38:43;-2.30;99.90
5041;DHT22;2539;52.568;13.364;2022-12-10T02:41:23;-2.50;99.90
5041;DHT22;2539;52.568;13.364;2022-12-10T02:43:52;-2.40;99.90
5041;DHT22;2539;52.568;13.364;2022-12-10T02:46:21;-2.40;99.90
5041;DHT22;2539;52.568;13.364;2022-12-10T02:48:48;-2.40;99.90
5041;DHT22;2539;52.568;13.364;2022-12-10T02:51:16;-2.40;99.90
5041;DHT22;2539;52.568;13.364;2022-12-10T02:53:43;-2.50;99.90
5041;DHT22;2539;52.568;13.364;2022-12-10T02:56:27;-2.50;99.90
5041;DHT22;2539;52.568;13.364;2022-12-10T03:01:58;-2.50;99.90
5041;DHT22;2539;52.568;13.364;2022-12-10T03:04:56;-2.40;99.90
5041;DHT22;2539;52.568;13.364;2022-12-10T03:07:35;-2.30;99.90
5041;DHT22;2539;52.568;13.364;2022-12-10T03:10:10;-2.30;99.90
5041;DHT22;2539;52.568;13.364;2022-12-10T03:12:42;-2.30;99.90
5041;DHT22;2539;52.568;13.364;2022-12-10T03:15:11;-2.30;99.90
5041;DHT22;2539;52.568;13.364;2022-12-10T03:17:39;-2.20;99.90
5041;DHT22;2539;52.568;13.364;2022-12-10T03:20:12;-2.20;99.90
5041;DHT22;2539;52.568;13.364;2022-12-10T03:22:43;-2.20;99.90
5041;DHT22;2539;52.568;13.364;2022-12-10T03:25:13;-2.10;99.90
5041;DHT22;2539;52.568;13.364;2022-12-10T03:27:41;-2.10;99.90
5041;DHT22;2539;52.568;13.364;2022-12-10T03:30:07;-2.10;99.90
5041;DHT22;2539;52.568;13.364;2022-12-10T03:32:33;-2.10;99.90
5041;DHT22;2539;52.568;13.364;2022-12-10T03:35:00;-2.10;99.90
5041;DHT22;2539;52.568;13.364;2022-12-10T03:37:27;-2.10;99.90
5041;DHT22;2539;52.568;13.364;2022-12-10T03:39:56;-2.10;99.90
5041;DHT22;2539;52.568;13.364;2022-12-10T03:44:50;-2.10;99.90
5041;DHT22;2539;52.568;13.364;2022-12-10T03:47:18;-2.10;99.90
5041;DHT22;2539;52.568;13.364;2022-12-10T03:52:11;-2.10;99.90
5041;DHT22;2539;52.568;13.364;2022-12-10T03:54:37;-2.10;99.90
5041;DHT22;2539;52.568;13.364;2022-12-10T03:59:29;-1.90;99.90
5041;DHT22;2539;52.568;13.364;2022-12-10T04:01:55;-1.90;99.90
5041;DHT22;2539;52.568;13.364;2022-12-10T04:06:48;-1.80;99.90
5041;DHT22;2539;52.568;13.364;2022-12-10T04:09:15;-1.80;99.90
5041;DHT22;2539;52.568;13.364;2022-12-10T04:11:43;-1.80;99.90
5041;DHT22;2539;52.568;13.364;2022-12-10T04:14:10;-1.70;99.90
5041;DHT22;2539;52.568;13.364;2022-12-10T04:19:23;-1.60;99.90
5041;DHT22;2539;52.568;13.364;2022-12-10T04:21:49;-1.60;99.90
5041;DHT22;2539;52.568;13.364;2022-12-10T04:24:36;-1.60;99.90
5041;DHT22;2539;52.568;13.364;2022-12-10T04:27:24;-1.60;99.90
5041;DHT22;2539;52.568;13.364;2022-12-10T04:29:52;-1.50;99.90
5041;DHT22;2539;52.568;13.364;2022-12-10T04:32:20;-1.50;99.90
5041;DHT22;2539;52.568;13.364;2022-12-10T04:37:14;-1.40;99.90
5041;DHT22;2539;52.568;13.364;2022-12-10T04:42:07;-1.40;99.90
5041;DHT22;2539;52.568;13.364;2022-12-10T04:44:34;-1.30;99.90
5041;DHT22;2539;52.568;13.364;2022-12-10T04:47:02;-1.40;99.90
5041;DHT22;2539;52.568;13.364;2022-12-10T04:51:55;-1.30;99.90
5041;DHT22;2539;52.568;13.364;2022-12-10T04:54:23;-1.30;99.90
5041;DHT22;2539;52.568;13.364;2022-12-10T04:59:16;-1.30;99.90
5041;DHT22;2539;52.568;13.364;2022-12-10T05:04:11;-1.30;99.90
5041;DHT22;2539;52.568;13.364;2022-12-10T05:09:05;-1.20;99.90
5041;DHT22;2539;52.568;13.364;2022-12-10T05:11:32;-1.20;99.90
5041;DHT22;2539;52.568;13.364;2022-12-10T05:13:58;-1.30;99.90
5041;DHT22;2539;52.568;13.364;2022-12-10T05:16:27;-1.20;99.90
5041;DHT22;2539;52.568;13.364;2022-12-10T05:18:55;-1.20;99.90
5041;DHT22;2539;52.568;13.364;2022-12-10T05:21:22;-1.20;99.90
5041;DHT22;2539;52.568;13.364;2022-12-10T05:23:51;-1.20;99.90
5041;DHT22;2539;52.568;13.364;2022-12-10T05:26:19;-1.20;99.90
5041;DHT22;2539;52.568;13.364;2022-12-10T05:28:49;-1.20;99.90
5041;DHT22;2539;52.568;13.364;2022-12-10T05:31:18;-1.40;99.90
5041;DHT22;2539;52.568;13.364;2022-12-10T05:33:46;-1.20;99.90
5041;DHT22;2539;52.568;13.364;2022-12-10T05:36:15;-1.10;99.90
5041;DHT22;2539;52.568;13.364;2022-12-10T05:41:15;-1.00;99.90
5041;DHT22;2539;52.568;13.364;2022-12-10T05:43:43;-1.00;99.90
5041;DHT22;2539;52.568;13.364;2022-12-10T05:46:13;-1.00;99.90
5041;DHT22;2539;52.568;13.364;2022-12-10T05:48:39;-1.00;99.90
5041;DHT22;2539;52.568;13.364;2022-12-10T05:51:12;-0.90;99.90
5041;DHT22;2539;52.568;13.364;2022-12-10T05:53:39;-1.00;99.90
5041;DHT22;2539;52.568;13.364;2022-12-10T05:56:11;-1.10;99.90
5041;DHT22;2539;52.568;13.364;2022-12-10T05:58:38;-1.10;99.90
5041;DHT22;2539;52.568;13.364;2022-12-10T06:01:10;-1.00;99.90
5041;DHT22;2539;52.568;13.364;2022-12-10T06:03:36;-1.20;99.90
5041;DHT22;2539;52.568;13.364;2022-12-10T06:10:55;-1.10;99.90
5041;DHT22;2539;52.568;13.364;2022-12-10T06:13:23;-1.10;99.90
5041;DHT22;2539;52.568;13.364;2022-12-10T06:20:43;-1.10;99.90
5041;DHT22;2539;52.568;13.364;2022-12-10T06:23:09;-1.10;99.90
5041;DHT22;2539;52.568;13.364;2022-12-10T06:25:38;-1.10;99.90
5041;DHT22;2539;52.568;13.364;2022-12-10T06:28:06;-1.20;99.90
5041;DHT22;2539;52.568;13.364;2022-12-10T06:32:59;-1.20;99.90
5041;DHT22;2539;52.568;13.364;2022-12-10T06:37:52;-1.20;99.90
5041;DHT22;2539;52.568;13.364;2022-12-10T06:40:18;-1.20;99.90
5041;DHT22;2539;52.568;13.364;2022-12-10T06:42:45;-1.20;99.90
5041;DHT22;2539;52.568;13.364;2022-12-10T06:50:05;-1.20;99.90
5041;DHT22;2539;52.568;13.364;2022-12-10T06:54:58;-1.20;99.90
5041;DHT22;2539;52.568;13.364;2022-12-10T07:07:10;-1.20;99.90
5041;DHT22;2539;52.568;13.364;2022-12-10T07:12:02;-1.20;99.90
5041;DHT22;2539;52.568;13.364;2022-12-10T07:14:28;-1.20;99.90
5041;DHT22;2539;52.568;13.364;2022-12-10T07:16:54;-1.40;99.90
5041;DHT22;2539;52.568;13.364;2022-12-10T07:19:20;-1.30;99.90
5041;DHT22;2539;52.568;13.364;2022-12-10T07:21:47;-1.20;99.90
5041;DHT22;2539;52.568;13.364;2022-12-10T07:24:18;-1.20;99.90
5041;DHT22;2539;52.568;13.364;2022-12-10T07:26:45;-1.20;99.90
5041;DHT22;2539;52.568;13.364;2022-12-10T07:29:19;-1.20;99.90
5041;DHT22;2539;52.568;13.364;2022-12-10T07:31:47;-1.20;99.90
5041;DHT22;2539;52.568;13.364;2022-12-10T07:34:16;-1.20;99.90
5041;DHT22;2539;52.568;13.364;2022-12-10T07:36:43;-1.20;99.90
5041;DHT22;2539;52.568;13.364;2022-12-10T07:39:10;-1.20;99.90
5041;DHT22;2539;52.568;13.364;2022-12-10T07:41:36;-1.20;99.90
5041;DHT22;2539;52.568;13.364;2022-12-10T07:44:04;-1.00;99.90
5041;DHT22;2539;52.568;13.364;2022-12-10T07:46:33;-0.80;99.90
5041;DHT22;2539;52.568;13.364;2022-12-10T07:49:00;-0.90;99.90
5041;DHT22;2539;52.568;13.364;2022-12-10T07:51:26;-0.90;99.90
5041;DHT22;2539;52.568;13.364;2022-12-10T07:53:53;-0.90;99.90
5041;DHT22;2539;52.568;13.364;2022-12-10T08:01:15;-0.90;99.90
5041;DHT22;2539;52.568;13.364;2022-12-10T08:06:11;-1.00;99.90
5041;DHT22;2539;52.568;13.364;2022-12-10T08:11:07;-0.90;99.90
5041;DHT22;2539;52.568;13.364;2022-12-10T08:13:34;-1.00;99.90
5041;DHT22;2539;52.568;13.364;2022-12-10T08:16:05;-0.90;99.90
5041;DHT22;2539;52.568;13.364;2022-12-10T08:18:32;-0.90;99.90
5041;DHT22;2539;52.568;13.364;2022-12-10T08:25:52;-0.80;99.90
5041;DHT22;2539;52.568;13.364;2022-12-10T08:30:46;-0.70;99.90
5041;DHT22;2539;52.568;13.364;2022-12-10T08:38:06;-0.70;99.90
5041;DHT22;2539;52.568;13.364;2022-12-10T08:40:33;-0.70;99.90
5041;DHT22;2539;52.568;13.364;2022-12-10T08:47:52;-0.50;99.90
5041;DHT22;2539;52.568;13.364;2022-12-10T08:50:19;-0.50;99.90
5041;DHT22;2539;52.568;13.364;2022-12-10T08:52:45;-0.60;99.90
5041;DHT22;2539;52.568;13.364;2022-12-10T08:55:11;-0.60;99.90
5041;DHT22;2539;52.568;13.364;2022-12-10T08:57:38;-0.50;99.90
5041;DHT22;2539;52.568;13.364;2022-12-10T09:00:05;-0.40;99.90
5041;DHT22;2539;52.568;13.364;2022-12-10T09:02:32;-0.50;99.90
5041;DHT22;2539;52.568;13.364;2022-12-10T09:04:58;-0.50;99.90
5041;DHT22;2539;52.568;13.364;2022-12-10T09:07:24;-0.50;99.90
5041;DHT22;2539;52.568;13.364;2022-12-10T09:09:50;-0.40;99.90
5041;DHT22;2539;52.568;13.364;2022-12-10T09:12:16;-0.50;99.90
5041;DHT22;2539;52.568;13.364;2022-12-10T09:14:41;-0.50;99.90
5041;DHT22;2539;52.568;13.364;2022-12-10T09:17:07;-0.70;99.90
5041;DHT22;2539;52.568;13.364;2022-12-10T09:19:34;-0.60;99.90
5041;DHT22;2539;52.568;13.364;2022-12-10T09:22:00;-0.60;99.90
5041;DHT22;2539;52.568;13.364;2022-12-10T09:24:26;-0.50;99.90
5041;DHT22;2539;52.568;13.364;2022-12-10T09:26:53;-0.40;99.90
5041;DHT22;2539;52.568;13.364;2022-12-10T09:29:19;-0.30;99.90
5041;DHT22;2539;52.568;13.364;2022-12-10T09:31:50;-0.20;99.90
5041;DHT22;2539;52.568;13.364;2022-12-10T09:34:16;-0.20;99.90
5041;DHT22;2539;52.568;13.364;2022-12-10T09:36:43;-0.20;99.90
5041;DHT22;2539;52.568;13.364;2022-12-10T09:39:09;-0.30;99.90
5041;DHT22;2539;52.568;13.364;2022-12-10T09:42:16;-0.20;99.90
5041;DHT22;2539;52.568;13.364;2022-12-10T09:47:54;0.00;99.90
5041;DHT22;2539;52.568;13.364;2022-12-10T09:50:29;-0.10;99.90
5041;DHT22;2539;52.568;13.364;2022-12-10T09:52:57;-0.10;99.90
5041;DHT22;2539;52.568;13.364;2022-12-10T09:55:36;0.00;99.90
5041;DHT22;2539;52.568;13.364;2022-12-10T09:58:04;0.00;99.90
5041;DHT22;2539;52.568;13.364;2022-12-10T10:00:40;0.00;99.90
5041;DHT22;2539;52.568;13.364;2022-12-10T10:03:09;0.00;99.90
5041;DHT22;2539;52.568;13.364;2022-12-10T10:05:47;0.10;99.90
5041;DHT22;2539;52.568;13.364;2022-12-10T10:10:51;0.00;99.90
5041;DHT22;2539;52.568;13.364;2022-12-10T10:15:53;0.60;99.90
5041;DHT22;2539;52.568;13.364;2022-12-10T10:18:36;0.30;99.90
5041;DHT22;2539;52.568;13.364;2022-12-10T10:21:06;0.10;99.90
5041;DHT22;2539;52.568;13.364;2022-12-10T10:23:35;0.20;99.90
5041;DHT22;2539;52.568;13.364;2022-12-10T10:26:01;0.20;99.90
5041;DHT22;2539;52.568;13.364;2022-12-10T10:28:27;0.10;99.90
5041;DHT22;2539;52.568;13.364;2022-12-10T10:30:54;0.10;99.90
5041;DHT22;2539;52.568;13.364;2022-12-10T10:33:20;0.20;99.90
5041;DHT22;2539;52.568;13.364;2022-12-10T10:35:49;0.10;99.90
5041;DHT22;2539;52.568;13.364;2022-12-10T10:38:29;-0.10;99.90
5041;DHT22;2539;52.568;13.364;2022-12-10T10:40:57;-0.10;99.90
5041;DHT22;2539;52.568;13.364;2022-12-10T10:43:33;-0.10;99.90
5041;DHT22;2539;52.568;13.364;2022-12-10T10:46:01;0.20;99.90
5041;DHT22;2539;52.568;13.364;2022-12-10T10:48:28;0.10;99.90
5041;DHT22;2539;52.568;13.364;2022-12-10T10:51:06;0.10;99.90
5041;DHT22;2539;52.568;13.364;2022-12-10T10:56:24;0.10;99.90
5041;DHT22;2539;52.568;13.364;2022-12-10T10:59:39;0.00;99.90
5041;DHT22;2539;52.568;13.364;2022-12-10T11:01:53;0.10;99.90
5041;DHT22;2539;52.568;13.364;2022-12-10T11:04:28;0.10;99.90
5041;DHT22;2539;52.568;13.364;2022-12-10T11:06:55;-0.10;99.90
5041;DHT22;2539;52.568;13.364;2022-12-10T11:09:29;-0.20;99.90
5041;DHT22;2539;52.568;13.364;2022-12-10T11:12:04;0.00;99.90
5041;DHT22;2539;52.568;13.364;2022-12-10T11:14:40;0.10;99.90
5041;DHT22;2539;52.568;13.364;2022-12-10T11:19:52;0.10;99.90
5041;DHT22;2539;52.568;13.364;2022-12-10T11:22:28;0.10;99.90
5041;DHT22;2539;52.568;13.364;2022-12-10T11:24:54;0.00;99.90
5041;DHT22;2539;52.568;13.364;2022-12-10T11:27:33;-0.20;99.90
5041;DHT22;2539;52.568;13.364;2022-12-10T11:30:11;-0.10;99.90
5041;DHT22;2539;52.568;13.364;2022-12-10T11:32:52;0.00;99.90
5041;DHT22;2539;52.568;13.364;2022-12-10T11:38:45;-0.10;99.90
5041;DHT22;2539;52.568;13.364;2022-12-10T11:44:10;-0.20;99.90
5041;DHT22;2539;52.568;13.364;2022-12-10T11:46:58;-0.30;99.90
5041;DHT22;2539;52.568;13.364;2022-12-10T12:05:52;-0.20;99.90
5041;DHT22;2539;52.568;13.364;2022-12-10T12:08:57;-0.10;99.90
5041;DHT22;2539;52.568;13.364;2022-12-10T12:11:51;-0.20;99.90
5041;DHT22;2539;52.568;13.364;2022-12-10T12:14:29;-0.20;99.90
5041;DHT22;2539;52.568;13.364;2022-12-10T12:19:57;-0.10;99.90
5041;DHT22;2539;52.568;13.364;2022-12-10T12:22:29;-0.20;99.90
5041;DHT22;2539;52.568;13.364;2022-12-10T12:25:06;-0.10;99.90
5041;DHT22;2539;52.568;13.364;2022-12-10T12:27:43;-0.10;99.90
5041;DHT22;2539;52.568;13.364;2022-12-10T12:30:14;-0.10;99.90
5041;DHT22;2539;52.568;13.364;2022-12-10T12:33:10;-0.10;99.90
5041;DHT22;2539;52.568;13.364;2022-12-10T12:36:04;-0.30;99.90
5041;DHT22;2539;52.568;13.364;2022-12-10T12:38:45;-0.30;99.90
5041;DHT22;2539;52.568;13.364;2022-12-10T12:41:17;-0.30;99.90
5041;DHT22;2539;52.568;13.364;2022-12-10T12:44:00;0.10;99.90
5041;DHT22;2539;52.568;13.364;2022-12-10T12:46:35;-0.30;99.90
5041;DHT22;2539;52.568;13.364;2022-12-10T12:49:38;-0.30;99.90
5041;DHT22;2539;52.568;13.364;2022-12-10T12:52:41;-0.30;99.90
5041;DHT22;2539;52.568;13.364;2022-12-10T12:55:20;-0.30;99.90
5041;DHT22;2539;52.568;13.364;2022-12-10T13:00:43;-0.30;99.90
5041;DHT22;2539;52.568;13.364;2022-12-10T13:03:27;-0.40;99.90
5041;DHT22;2539;52.568;13.364;2022-12-10T13:05:54;-0.30;99.90
5041;DHT22;2539;52.568;13.364;2022-12-10T13:10:59;-0.30;99.90
5041;DHT22;2539;52.568;13.364;2022-12-10T13:13:37;-0.40;99.90
5041;DHT22;2539;52.568;13.364;2022-12-10T13:27:29;-0.30;99.90
5041;DHT22;2539;52.568;13.364;2022-12-10T13:37:34;-0.30;99.90
5041;DHT22;2539;52.568;13.364;2022-12-10T13:42:38;-0.40;99.90
5041;DHT22;2539;52.568;13.364;2022-12-10T13:45:27;-0.40;99.90
5041;DHT22;2539;52.568;13.364;2022-12-10T13:50:45;-0.40;99.90
5041;DHT22;2539;52.568;13.364;2022-12-10T13:55:59;-0.50;99.90
5041;DHT22;2539;52.568;13.364;2022-12-10T14:04:21;-0.50;99.90
5041;DHT22;2539;52.568;13.364;2022-12-10T14:06:51;-0.40;99.90
5041;DHT22;2539;52.568;13.364;2022-12-10T14:09:24;-0.40;99.90
5041;DHT22;2539;52.568;13.364;2022-12-10T14:11:59;-0.50;99.90
5041;DHT22;2539;52.568;13.364;2022-12-10T14:14:42;-0.50;99.90
5041;DHT22;2539;52.568;13.364;2022-12-10T14:17:16;-0.50;99.90
5041;DHT22;2539;52.568;13.364;2022-12-10T14:19:46;-0.50;99.90
5041;DHT22;2539;52.568;13.364;2022-12-10T14:22:18;-0.50;99.90
5041;DHT22;2539;52.568;13.364;2022-12-10T14:24:48;-0.50;99.90
5041;DHT22;2539;52.568;13.364;2022-12-10T14:27:19;-0.40;99.90
5041;DHT22;2539;52.568;13.364;2022-12-10T14:29:57;-0.50;99.90
5041;DHT22;2539;52.568;13.364;2022-12-10T14:32:34;-0.50;99.90
5041;DHT22;2539;52.568;13.364;2022-12-10T14:35:03;-0.50;99.90
5041;DHT22;2539;52.568;13.364;2022-12-10T14:37:33;-0.50;99.90
5041;DHT22;2539;52.568;13.364;2022-12-10T14:40:01;-0.50;99.90
5041;DHT22;2539;52.568;13.364;2022-12-10T14:42:30;-0.50;99.90
5041;DHT22;2539;52.568;13.364;2022-12-10T14:44:59;-0.50;99.90
5041;DHT22;2539;52.568;13.364;2022-12-10T14:47:26;-0.60;99.90
5041;DHT22;2539;52.568;13.364;2022-12-10T14:49:54;-0.50;99.90
5041;DHT22;2539;52.568;13.364;2022-12-10T14:52:23;-0.50;99.90
5041;DHT22;2539;52.568;13.364;2022-12-10T14:54:51;-0.60;99.90
5041;DHT22;2539;52.568;13.364;2022-12-10T14:57:30;-0.50;99.90
5041;DHT22;2539;52.568;13.364;2022-12-10T15:02:33;-0.50;99.90
5041;DHT22;2539;52.568;13.364;2022-12-10T15:05:00;-0.50;99.90
5041;DHT22;2539;52.568;13.364;2022-12-10T15:07:30;-0.60;99.90
5041;DHT22;2539;52.568;13.364;2022-12-10T15:09:58;-0.50;99.90
5041;DHT22;2539;52.568;13.364;2022-12-10T15:12:56;-0.50;99.90
5041;DHT22;2539;52.568;13.364;2022-12-10T15:15:38;-0.60;99.90
5041;DHT22;2539;52.568;13.364;2022-12-10T15:18:12;-0.50;99.90
5041;DHT22;2539;52.568;13.364;2022-12-10T15:26:02;-0.50;99.90
5041;DHT22;2539;52.568;13.364;2022-12-10T15:28:38;-0.50;99.90
5041;DHT22;2539;52.568;13.364;2022-12-10T15:31:22;-0.50;99.90
5041;DHT22;2539;52.568;13.364;2022-12-10T15:34:07;-0.50;99.90
5041;DHT22;2539;52.568;13.364;2022-12-10T15:39:20;-0.50;99.90
5041;DHT22;2539;52.568;13.364;2022-12-10T15:41:57;-0.40;99.90
5041;DHT22;2539;52.568;13.364;2022-12-10T15:47:16;-0.50;99.90
5041;DHT22;2539;52.568;13.364;2022-12-10T15:49:44;-0.50;99.90
5041;DHT22;2539;52.568;13.364;2022-12-10T15:52:21;-0.50;99.90
5041;DHT22;2539;52.568;13.364;2022-12-10T15:54:51;-0.50;99.90
5041;DHT22;2539;52.568;13.364;2022-12-10T15:57:20;-0.50;99.90
5041;DHT22;2539;52.568;13.364;2022-12-10T15:59:49;-0.50;99.90
5041;DHT22;2539;52.568;13.364;2022-12-10T16:02:37;-0.40;99.90
5041;DHT22;2539;52.568;13.364;2022-12-10T16:05:33;-0.50;99.90
5041;DHT22;2539;52.568;13.364;2022-12-10T16:10:43;-0.40;99.90
5041;DHT22;2539;52.568;13.364;2022-12-10T16:13:21;-0.50;99.90
5041;DHT22;2539;52.568;13.364;2022-12-10T16:15:53;-0.40;99.90
5041;DHT22;2539;52.568;13.364;2022-12-10T16:18:20;-0.50;99.90
5041;DHT22;2539;52.568;13.364;2022-12-10T16:20:46;-0.60;99.90
5041;DHT22;2539;52.568;13.364;2022-12-10T16:23:13;-2.20;99.90
5041;DHT22;2539;52.568;13.364;2022-12-10T16:25:41;-0.50;99.90
5041;DHT22;2539;52.568;13.364;2022-12-10T16:28:11;-0.50;99.90
5041;DHT22;2539;52.568;13.364;2022-12-10T16:33:08;-0.60;99.90
5041;DHT22;2539;52.568;13.364;2022-12-10T16:35:35;-0.60;99.90
5041;DHT22;2539;52.568;13.364;2022-12-10T16:38:01;-0.70;99.90
5041;DHT22;2539;52.568;13.364;2022-12-10T16:40:28;-0.70;99.90
5041;DHT22;2539;52.568;13.364;2022-12-10T16:42:55;-0.70;99.90
5041;DHT22;2539;52.568;13.364;2022-12-10T16:45:26;-0.60;99.90
5041;DHT22;2539;52.568;13.364;2022-12-10T16:47:53;-0.70;99.90
5041;DHT22;2539;52.568;13.364;2022-12-10T16:50:20;-0.60;99.90
5041;DHT22;2539;52.568;13.364;2022-12-10T16:52:47;-0.60;99.90
5041;DHT22;2539;52.568;13.364;2022-12-10T16:55:18;-0.70;99.90
5041;DHT22;2539;52.568;13.364;2022-12-10T16:57:45;-0.70;99.90
5041;DHT22;2539;52.568;13.364;2022-12-10T17:00:17;-0.70;99.90
5041;DHT22;2539;52.568;13.364;2022-12-10T17:02:45;-0.70;99.90
5041;DHT22;2539;52.568;13.364;2022-12-10T17:05:29;-0.70;99.90
5041;DHT22;2539;52.568;13.364;2022-12-10T17:07:55;-0.70;99.90
5041;DHT22;2539;52.568;13.364;2022-12-10T17:10:22;-0.60;99.90
5041;DHT22;2539;52.568;13.364;2022-12-10T17:13:13;-0.60;99.90
5041;DHT22;2539;52.568;13.364;2022-12-10T17:15:41;-0.60;99.90
5041;DHT22;2539;52.568;13.364;2022-12-10T17:18:13;-0.60;99.90
5041;DHT22;2539;52.568;13.364;2022-12-10T17:20:40;-0.60;99.90
5041;DHT22;2539;52.568;13.364;2022-12-10T17:23:07;-0.60;99.90
5041;DHT22;2539;52.568;13.364;2022-12-10T17:25:33;-0.60;99.90
5041;DHT22;2539;52.568;13.364;2022-12-10T17:28:00;-0.60;99.90
5041;DHT22;2539;52.568;13.364;2022-12-10T17:30:26;-0.60;99.90
5041;DHT22;2539;52.568;13.364;2022-12-10T17:32:52;-0.50;99.90
5041;DHT22;2539;52.568;13.364;2022-12-10T17:35:20;-0.60;99.90
5041;DHT22;2539;52.568;13.364;2022-12-10T17:37:47;-0.50;99.90
5041;DHT22;2539;52.568;13.364;2022-12-10T17:40:19;-0.50;99.90
5041;DHT22;2539;52.568;13.364;2022-12-10T17:42:46;-0.50;99.90
5041;DHT22;2539;52.568;13.364;2022-12-10T17:45:14;-0.50;99.90
5041;DHT22;2539;52.568;13.364;2022-12-10T17:47:44;-0.50;99.90
5041;DHT22;2539;52.568;13.364;2022-12-10T17:50:31;-0.60;99.90
5041;DHT22;2539;52.568;13.364;2022-12-10T17:53:03;-0.60;99.90
5041;DHT22;2539;52.568;13.364;2022-12-10T17:55:30;-0.60;99.90
5041;DHT22;2539;52.568;13.364;2022-12-10T17:57:56;-0.60;99.90
5041;DHT22;2539;52.568;13.364;2022-12-10T18:00:27;-0.50;99.90
5041;DHT22;2539;52.568;13.364;2022-12-10T18:02:54;-0.50;99.90
5041;DHT22;2539;52.568;13.364;2022-12-10T18:05:20;-0.50;99.90
5041;DHT22;2539;52.568;13.364;2022-12-10T18:07:46;-0.60;99.90
5041;DHT22;2539;52.568;13.364;2022-12-10T18:10:20;-0.50;99.90
5041;DHT22;2539;52.568;13.364;2022-12-10T18:12:47;-0.50;99.90
5041;DHT22;2539;52.568;13.364;2022-12-10T18:15:15;0.00;99.90
5041;DHT22;2539;52.568;13.364;2022-12-10T18:17:41;-0.50;99.90
5041;DHT22;2539;52.568;13.364;2022-12-10T18:20:25;-0.60;99.90
5041;DHT22;2539;52.568;13.364;2022-12-10T18:22:53;-0.50;99.90
5041;DHT22;2539;52.568;13.364;2022-12-10T18:25:20;-0.40;99.90
5041;DHT22;2539;52.568;13.364;2022-12-10T18:27:47;-0.50;99.90
5041;DHT22;2539;52.568;13.364;2022-12-10T18:30:15;-0.50;99.90
5041;DHT22;2539;52.568;13.364;2022-12-10T18:32:42;-0.50;99.90
5041;DHT22;2539;52.568;13.364;2022-12-10T18:35:09;-0.50;99.90
5041;DHT22;2539;52.568;13.364;2022-12-10T18:37:37;-0.60;99.90
5041;DHT22;2539;52.568;13.364;2022-12-10T18:40:05;-0.50;99.90
5041;DHT22;2539;52.568;13.364;2022-12-10T18:42:32;-0.50;99.90
5041;DHT22;2539;52.568;13.364;2022-12-10T18:44:58;-0.50;99.90
5041;DHT22;2539;52.568;13.364;2022-12-10T18:47:25;-0.50;99.90
5041;DHT22;2539;52.568;13.364;2022-12-10T18:49:51;-0.50;99.90
5041;DHT22;2539;52.568;13.364;2022-12-10T18:52:17;-0.50;99.90
5041;DHT22;2539;52.568;13.364;2022-12-10T18:54:43;-0.50;99.90
5041;DHT22;2539;52.568;13.364;2022-12-10T18:57:12;-2.50;99.90
5041;DHT22;2539;52.568;13.364;2022-12-10T18:59:39;-0.60;99.90
5041;DHT22;2539;52.568;13.364;2022-12-10T19:02:06;-0.60;99.90
5041;DHT22;2539;52.568;13.364;2022-12-10T19:04:32;-0.50;99.90
5041;DHT22;2539;52.568;13.364;2022-12-10T19:06:59;-0.50;99.90
5041;DHT22;2539;52.568;13.364;2022-12-10T19:09:26;-0.50;99.90
5041;DHT22;2539;52.568;13.364;2022-12-10T19:14:20;-0.50;99.90
5041;DHT22;2539;52.568;13.364;2022-12-10T19:16:49;-0.60;99.90
5041;DHT22;2539;52.568;13.364;2022-12-10T19:19:17;-0.60;99.90
5041;DHT22;2539;52.568;13.364;2022-12-10T19:21:45;-0.50;99.90
5041;DHT22;2539;52.568;13.364;2022-12-10T19:24:12;-0.60;99.90
5041;DHT22;2539;52.568;13.364;2022-12-10T19:26:40;-0.70;99.90
5041;DHT22;2539;52.568;13.364;2022-12-10T19:29:16;-0.70;99.90
5041;DHT22;2539;52.568;13.364;2022-12-10T19:31:43;-0.60;99.90